Buoy 52609

sailwx.info

Track history (hours):
 
Tides and Currents Weather Stations Pressure Air Temp Water Temp Dewpoint Dewpoint Depression Visibility Wind Speed Wind Dir Waves Ship Positions

Drifting buoy 52609

Last reported at 2014-Nov-23 07:00 UTC. Time now 2014-Nov-23 08:50 UTC.
Position N 13°16' E 147°05'.

Water temperature 29.5 ° C

Date/timePositionNaut miles runAvg speedWind from/ knotsBaromVisibWave heightAir tempDewpointWater temp
2014-Nov-23 07:00N 13°16' E 147°05'1 0.8 29.5
2014-Nov-23 06:00N 13°17' E 147°06'0 0.0 29.5
2014-Nov-23 05:00N 13°17' E 147°06'1 0.3 29.5
2014-Nov-23 03:00N 13°17' E 147°07'1 0.2 29.5
2014-Nov-23 00:00N 13°17' E 147°07'2 2.1 29.4
2014-Nov-22 23:00N 13°15' E 147°09'1 0.3 29.4
2014-Nov-22 20:00N 13°16' E 147°10'1 1.0 29.4
2014-Nov-22 19:00N 13°15' E 147°11'1 1.4 29.4
2014-Nov-22 18:00N 13°16' E 147°12'0 0.0 29.4
2014-Nov-22 16:00N 13°16' E 147°12'2 1.1 29.4
2014-Nov-22 14:00N 13°14' E 147°14'1 0.4 29.4
2014-Nov-22 12:00N 13°14' E 147°13'0 0.0 29.4
2014-Nov-22 11:00N 13°14' E 147°13'1 1.2 29.4
2014-Nov-22 10:00N 13°14' E 147°14'1 1.4 29.4
2014-Nov-22 09:00N 13°12' E 147°15'2 1.7 29.4
2014-Nov-22 08:00N 13°11' E 147°16'0 0.0 29.5
2014-Nov-22 07:00N 13°11' E 147°16'0 0.0 29.5
2014-Nov-22 05:00N 13°11' E 147°16'7 6.7 29.5
2014-Nov-22 04:00N 13°10' E 147°23'0 0.0 29.5
2014-Nov-22 03:00N 13°10' E 147°23'4 1.2 29.5
2014-Nov-22 00:00N 13°10' E 147°26'0 0.0 29.4
2014-Nov-21 23:00N 13°10' E 147°26'0 0.0 29.4
2014-Nov-21 21:00N 13°10' E 147°26'2 1.9 29.4
2014-Nov-21 20:00N 13°10' E 147°28'1 0.4 29.4
2014-Nov-21 18:00N 13°10' E 147°29'3 1.7 29.4
2014-Nov-21 16:00N 13°12' E 147°32'0 0.0 29.4
2014-Nov-21 15:00N 13°12' E 147°32'0 0.0 29.4
2014-Nov-21 14:00N 13°12' E 147°32'3 1.5 29.4
2014-Nov-21 12:00N 13°14' E 147°34'0 0.0 29.5
2014-Nov-21 11:00N 13°14' E 147°34'0 0.0 29.5
2014-Nov-21 10:00N 13°14' E 147°34'1 0.4 29.4
2014-Nov-21 08:00N 13°14' E 147°35'2 1.9 29.5
2014-Nov-21 07:00N 13°14' E 147°37'1 0.6 29.5
2014-Nov-21 06:00N 13°14' E 147°36'2 1.9 29.5
2014-Nov-21 05:00N 13°14' E 147°38'0 0.0 29.5
2014-Nov-21 04:00N 13°14' E 147°38'0 0.0 29.5
2014-Nov-21 03:00N 13°14' E 147°38'1 0.2 29.5
2014-Nov-21 00:00N 13°15' E 147°38'1 0.8 29.5
2014-Nov-20 23:00N 13°14' E 147°38'1 1.1 29.4
2014-Nov-20 22:00N 13°14' E 147°39'0 0.1 29.4
2014-Nov-20 20:00N 13°14' E 147°39'3 1.3 29.4
2014-Nov-20 18:00N 13°13' E 147°41'0 0.0 29.4
2014-Nov-20 17:00N 13°13' E 147°41'1 1.2 29.4
2014-Nov-20 16:00N 13°13' E 147°43'0 0.1 29.5
2014-Nov-20 15:00N 13°12' E 147°43'0 0.0 29.5
2014-Nov-20 14:00N 13°12' E 147°43'2 1.2 29.5
2014-Nov-20 12:00N 13°12' E 147°45'1 0.6 29.5
2014-Nov-20 11:00N 13°12' E 147°46'2 0.9 29.5
2014-Nov-20 09:00N 13°12' E 147°47'2 2.1 29.5
2014-Nov-20 08:00N 13°11' E 147°49'1 0.4 29.6
2014-Nov-20 06:00N 13°10' E 147°50'2 1.8 29.6
2014-Nov-20 05:00N 13°10' E 147°52'0 0.0 29.6
2014-Nov-20 04:00N 13°10' E 147°52'2 1.7 29.6
2014-Nov-20 03:00N 13°11' E 147°53'0 0.2 29.6
2014-Nov-20 02:00N 13°11' E 147°53'2 1.9 29.6
2014-Nov-20 01:00N 13°12' E 147°55'1 0.5 29.5
2014-Nov-19 23:00N 13°13' E 147°56'3 0.9 29.4
2014-Nov-19 20:00N 13°14' E 147°58'2 2.4 29.4
2014-Nov-19 19:00N 13°14' E 148°01'0 0.0 29.4
2014-Nov-19 18:00N 13°14' E 148°01'1 0.8 29.4
2014-Nov-19 17:00N 13°15' E 148°01'0 0.0 29.4
2014-Nov-19 15:00N 13°15' E 148°01'2 0.7 29.4
2014-Nov-19 12:00N 13°17' E 148°02'1 0.6 29.5
2014-Nov-19 11:00N 13°17' E 148°03'0 0.1 29.5
2014-Nov-19 07:00N 13°17' E 148°03'3 2.9 29.6
2014-Nov-19 06:00N 13°17' E 148°06'0 0.0 29.7
2014-Nov-19 05:00N 13°17' E 148°06'0 0.0 29.6
2014-Nov-19 04:00N 13°17' E 148°06'1 0.4 29.6
2014-Nov-19 02:00N 13°18' E 148°07'2 1.1 29.6
2014-Nov-19 00:00N 13°19' E 148°08'1 0.6 29.5
2014-Nov-18 23:00N 13°19' E 148°08'0 0.0 29.4
2014-Nov-18 21:00N 13°19' E 148°08'2 2.1 29.3
2014-Nov-18 20:00N 13°20' E 148°10'1 0.9 29.4
2014-Nov-18 19:00N 13°20' E 148°10'1 0.9 29.4
2014-Nov-18 18:00N 13°20' E 148°11'1 0.6 29.4
2014-Nov-18 17:00N 13°21' E 148°11'3 1.4 29.4
2014-Nov-18 15:00N 13°20' E 148°14'0 0.0 29.4
2014-Nov-18 11:00N 13°20' E 148°14'0 0.2 29.5
2014-Nov-18 10:00N 13°20' E 148°14'2 1.2 29.5
2014-Nov-18 08:00N 13°20' E 148°16'1 1.2 29.5
2014-Nov-18 07:00N 13°20' E 148°17'0 0.0 29.6
2014-Nov-18 06:00N 13°20' E 148°17'1 0.7 29.7
2014-Nov-18 04:00N 13°19' E 148°19'1 1.2 29.7
2014-Nov-18 03:00N 13°19' E 148°20'0 0.2 29.6
2014-Nov-18 02:00N 13°19' E 148°20'5 0.8 29.5
2014-Nov-17 20:00N 13°20' E 148°25'1 1.3 29.4
2014-Nov-17 19:00N 13°21' E 148°26'1 0.6 29.4
2014-Nov-17 18:00N 13°21' E 148°26'0 0.0 29.4
2014-Nov-17 17:00N 13°21' E 148°26'2 1.9 29.4
2014-Nov-17 16:00N 13°22' E 148°28'0 0.1 29.4
2014-Nov-17 15:00N 13°22' E 148°28'3 1.0 29.4
2014-Nov-17 12:00N 13°22' E 148°31'2 1.2 29.4
2014-Nov-17 10:00N 13°22' E 148°34'1 1.2 29.5
2014-Nov-17 09:00N 13°23' E 148°34'1 1.2 29.5
2014-Nov-17 08:00N 13°23' E 148°35'1 0.7 29.6
2014-Nov-17 06:00N 13°24' E 148°36'1 0.8 29.6
2014-Nov-17 05:00N 13°25' E 148°37'0 0.0 29.7
2014-Nov-17 04:00N 13°25' E 148°37'0 0.0 29.6
2014-Nov-17 03:00N 13°25' E 148°37'0 0.0 29.6
2014-Nov-17 02:00N 13°25' E 148°37'6 0.9 29.6
2014-Nov-16 20:00N 13°26' E 148°42'0 0.0 29.4
2014-Nov-16 19:00N 13°26' E 148°42'1 0.7 29.4
2014-Nov-16 17:00N 13°27' E 148°43'0 0.0 29.4
2014-Nov-16 16:00N 13°27' E 148°43'0 0.0 29.4
2014-Nov-16 15:00N 13°27' E 148°43'4 1.2 29.4
2014-Nov-16 12:00N 13°26' E 148°47'1 0.6 29.4
2014-Nov-16 11:00N 13°26' E 148°47'0 0.0 29.5
2014-Nov-16 10:00N 13°26' E 148°47'2 0.9 29.5
2014-Nov-16 08:00N 13°26' E 148°49'0 0.0 29.5
2014-Nov-16 07:00N 13°26' E 148°49'1 0.8 29.5
2014-Nov-16 06:00N 13°26' E 148°50'1 0.6 29.5
2014-Nov-16 05:00N 13°26' E 148°50'0 0.1 29.5
2014-Nov-16 04:00N 13°26' E 148°50'0 0.1 29.5
2014-Nov-16 03:00N 13°26' E 148°50'0 0.1 29.5
2014-Nov-16 02:00N 13°26' E 148°50'2 1.2 29.5
2014-Nov-16 00:00N 13°26' E 148°53'1 0.2 29.4
2014-Nov-15 21:00N 13°25' E 148°53'1 0.7 29.4
2014-Nov-15 19:00N 13°25' E 148°54'1 0.6 29.4
2014-Nov-15 18:00N 13°25' E 148°55'1 1.3 29.4
2014-Nov-15 17:00N 13°23' E 148°55'0 0.0 29.4
2014-Nov-15 16:00N 13°23' E 148°55'0 0.0 29.4
2014-Nov-15 15:00N 13°23' E 148°55'4 1.4 29.4
2014-Nov-15 12:00N 13°23' E 148°59'1 0.6 29.5
2014-Nov-15 11:00N 13°23' E 149°00'1 1.2 29.5
2014-Nov-15 10:00N 13°23' E 149°01'4 1.2 29.5
2014-Nov-15 07:00N 13°22' E 149°05'0 0.0 29.6
2014-Nov-15 06:00N 13°22' E 149°05'0 0.0 29.6
2014-Nov-15 05:00N 13°22' E 149°05'1 0.4 29.6
2014-Nov-15 03:00N 13°23' E 149°05'0 0.3 29.5
2014-Nov-15 02:00N 13°23' E 149°06'3 1.2 29.5
2014-Nov-14 23:00N 13°23' E 149°09'0 0.1 29.4
2014-Nov-14 22:00N 13°23' E 149°09'3 1.3 29.4
2014-Nov-14 20:00N 13°24' E 149°11'0 0.0 29.4
2014-Nov-14 19:00N 13°24' E 149°11'0 0.0 29.4
2014-Nov-14 18:00N 13°24' E 149°11'1 0.4 29.4
2014-Nov-14 16:00N 13°25' E 149°12'0 0.2 29.4
2014-Nov-14 15:00N 13°25' E 149°12'2 0.5 29.5
2014-Nov-14 12:00N 13°25' E 149°14'1 0.3 29.5
2014-Nov-14 10:00N 13°25' E 149°14'1 0.6 29.5
2014-Nov-14 09:00N 13°25' E 149°14'1 0.1 29.5
2014-Nov-14 05:00N 13°25' E 149°15'1 0.3 29.6
2014-Nov-14 03:00N 13°25' E 149°14'3 0.7 29.5
2014-Nov-13 23:00N 13°24' E 149°17'1 0.3 29.4
2014-Nov-13 20:00N 13°23' E 149°16'2 1.1 29.4
2014-Nov-13 18:00N 13°22' E 149°18'1 0.4 29.4
2014-Nov-13 16:00N 13°22' E 149°19'1 0.3 29.4
2014-Nov-13 14:00N 13°22' E 149°19'2 1.1 29.4
2014-Nov-13 12:00N 13°20' E 149°21'1 0.8 29.5
2014-Nov-13 11:00N 13°20' E 149°22'2 2.3 29.5
2014-Nov-13 10:00N 13°20' E 149°24'0 0.0 29.5
2014-Nov-13 09:00N 13°20' E 149°24'1 0.3 29.5
2014-Nov-13 07:00N 13°20' E 149°25'   29.5
Track history (hours):
 
Tides and Currents Weather Stations Pressure Air Temp Water Temp Dewpoint Dewpoint Depression Visibility Wind Speed Wind Dir Waves Ship Positions

Drifting buoy 52609

Last reported at 2014-Nov-23 07:00 UTC. Time now 2014-Nov-23 08:50 UTC.
Position N 13°16' E 147°05'.

Water temperature 29.5 ° C

Date/timePositionNaut miles runAvg speedWind from/ knotsBaromVisibWave heightAir tempDewpointWater temp
2014-Nov-23 07:00N 13°16' E 147°05'1 0.8 29.5
2014-Nov-23 06:00N 13°17' E 147°06'0 0.0 29.5
2014-Nov-23 05:00N 13°17' E 147°06'1 0.3 29.5
2014-Nov-23 03:00N 13°17' E 147°07'1 0.2 29.5
2014-Nov-23 00:00N 13°17' E 147°07'2 2.1 29.4
2014-Nov-22 23:00N 13°15' E 147°09'1 0.3 29.4
2014-Nov-22 20:00N 13°16' E 147°10'1 1.0 29.4
2014-Nov-22 19:00N 13°15' E 147°11'1 1.4 29.4
2014-Nov-22 18:00N 13°16' E 147°12'0 0.0 29.4
2014-Nov-22 16:00N 13°16' E 147°12'2 1.1 29.4
2014-Nov-22 14:00N 13°14' E 147°14'1 0.4 29.4
2014-Nov-22 12:00N 13°14' E 147°13'0 0.0 29.4
2014-Nov-22 11:00N 13°14' E 147°13'1 1.2 29.4
2014-Nov-22 10:00N 13°14' E 147°14'1 1.4 29.4
2014-Nov-22 09:00N 13°12' E 147°15'2 1.7 29.4
2014-Nov-22 08:00N 13°11' E 147°16'0 0.0 29.5
2014-Nov-22 07:00N 13°11' E 147°16'0 0.0 29.5
2014-Nov-22 05:00N 13°11' E 147°16'7 6.7 29.5
2014-Nov-22 04:00N 13°10' E 147°23'0 0.0 29.5
2014-Nov-22 03:00N 13°10' E 147°23'4 1.2 29.5
2014-Nov-22 00:00N 13°10' E 147°26'0 0.0 29.4
2014-Nov-21 23:00N 13°10' E 147°26'0 0.0 29.4
2014-Nov-21 21:00N 13°10' E 147°26'2 1.9 29.4
2014-Nov-21 20:00N 13°10' E 147°28'1 0.4 29.4
2014-Nov-21 18:00N 13°10' E 147°29'3 1.7 29.4
2014-Nov-21 16:00N 13°12' E 147°32'0 0.0 29.4
2014-Nov-21 15:00N 13°12' E 147°32'0 0.0 29.4
2014-Nov-21 14:00N 13°12' E 147°32'3 1.5 29.4
2014-Nov-21 12:00N 13°14' E 147°34'0 0.0 29.5
2014-Nov-21 11:00N 13°14' E 147°34'0 0.0 29.5
2014-Nov-21 10:00N 13°14' E 147°34'1 0.4 29.4
2014-Nov-21 08:00N 13°14' E 147°35'2 1.9 29.5
2014-Nov-21 07:00N 13°14' E 147°37'1 0.6 29.5
2014-Nov-21 06:00N 13°14' E 147°36'2 1.9 29.5
2014-Nov-21 05:00N 13°14' E 147°38'0 0.0 29.5
2014-Nov-21 04:00N 13°14' E 147°38'0 0.0 29.5
2014-Nov-21 03:00N 13°14' E 147°38'1 0.2 29.5
2014-Nov-21 00:00N 13°15' E 147°38'1 0.8 29.5
2014-Nov-20 23:00N 13°14' E 147°38'1 1.1 29.4
2014-Nov-20 22:00N 13°14' E 147°39'0 0.1 29.4
2014-Nov-20 20:00N 13°14' E 147°39'3 1.3 29.4
2014-Nov-20 18:00N 13°13' E 147°41'0 0.0 29.4
2014-Nov-20 17:00N 13°13' E 147°41'1 1.2 29.4
2014-Nov-20 16:00N 13°13' E 147°43'0 0.1 29.5
2014-Nov-20 15:00N 13°12' E 147°43'0 0.0 29.5
2014-Nov-20 14:00N 13°12' E 147°43'2 1.2 29.5
2014-Nov-20 12:00N 13°12' E 147°45'1 0.6 29.5
2014-Nov-20 11:00N 13°12' E 147°46'2 0.9 29.5
2014-Nov-20 09:00N 13°12' E 147°47'2 2.1 29.5
2014-Nov-20 08:00N 13°11' E 147°49'1 0.4 29.6
2014-Nov-20 06:00N 13°10' E 147°50'2 1.8 29.6
2014-Nov-20 05:00N 13°10' E 147°52'0 0.0 29.6
2014-Nov-20 04:00N 13°10' E 147°52'2 1.7 29.6
2014-Nov-20 03:00N 13°11' E 147°53'0 0.2 29.6
2014-Nov-20 02:00N 13°11' E 147°53'2 1.9 29.6
2014-Nov-20 01:00N 13°12' E 147°55'1 0.5 29.5
2014-Nov-19 23:00N 13°13' E 147°56'3 0.9 29.4
2014-Nov-19 20:00N 13°14' E 147°58'2 2.4 29.4
2014-Nov-19 19:00N 13°14' E 148°01'0 0.0 29.4
2014-Nov-19 18:00N 13°14' E 148°01'1 0.8 29.4
2014-Nov-19 17:00N 13°15' E 148°01'0 0.0 29.4
2014-Nov-19 15:00N 13°15' E 148°01'2 0.7 29.4
2014-Nov-19 12:00N 13°17' E 148°02'1 0.6 29.5
2014-Nov-19 11:00N 13°17' E 148°03'0 0.1 29.5
2014-Nov-19 07:00N 13°17' E 148°03'3 2.9 29.6
2014-Nov-19 06:00N 13°17' E 148°06'0 0.0 29.7
2014-Nov-19 05:00N 13°17' E 148°06'0 0.0 29.6
2014-Nov-19 04:00N 13°17' E 148°06'1 0.4 29.6
2014-Nov-19 02:00N 13°18' E 148°07'2 1.1 29.6
2014-Nov-19 00:00N 13°19' E 148°08'1 0.6 29.5
2014-Nov-18 23:00N 13°19' E 148°08'0 0.0 29.4
2014-Nov-18 21:00N 13°19' E 148°08'2 2.1 29.3
2014-Nov-18 20:00N 13°20' E 148°10'1 0.9 29.4
2014-Nov-18 19:00N 13°20' E 148°10'1 0.9 29.4
2014-Nov-18 18:00N 13°20' E 148°11'1 0.6 29.4
2014-Nov-18 17:00N 13°21' E 148°11'3 1.4 29.4
2014-Nov-18 15:00N 13°20' E 148°14'0 0.0 29.4
2014-Nov-18 11:00N 13°20' E 148°14'0 0.2 29.5
2014-Nov-18 10:00N 13°20' E 148°14'2 1.2 29.5
2014-Nov-18 08:00N 13°20' E 148°16'1 1.2 29.5
2014-Nov-18 07:00N 13°20' E 148°17'0 0.0 29.6
2014-Nov-18 06:00N 13°20' E 148°17'1 0.7 29.7
2014-Nov-18 04:00N 13°19' E 148°19'1 1.2 29.7
2014-Nov-18 03:00N 13°19' E 148°20'0 0.2 29.6
2014-Nov-18 02:00N 13°19' E 148°20'5 0.8 29.5
2014-Nov-17 20:00N 13°20' E 148°25'1 1.3 29.4
2014-Nov-17 19:00N 13°21' E 148°26'1 0.6 29.4
2014-Nov-17 18:00N 13°21' E 148°26'0 0.0 29.4
2014-Nov-17 17:00N 13°21' E 148°26'2 1.9 29.4
2014-Nov-17 16:00N 13°22' E 148°28'0 0.1 29.4
2014-Nov-17 15:00N 13°22' E 148°28'3 1.0 29.4
2014-Nov-17 12:00N 13°22' E 148°31'2 1.2 29.4
2014-Nov-17 10:00N 13°22' E 148°34'1 1.2 29.5
2014-Nov-17 09:00N 13°23' E 148°34'1 1.2 29.5
2014-Nov-17 08:00N 13°23' E 148°35'1 0.7 29.6
2014-Nov-17 06:00N 13°24' E 148°36'1 0.8 29.6
2014-Nov-17 05:00N 13°25' E 148°37'0 0.0 29.7
2014-Nov-17 04:00N 13°25' E 148°37'0 0.0 29.6
2014-Nov-17 03:00N 13°25' E 148°37'0 0.0 29.6
2014-Nov-17 02:00N 13°25' E 148°37'6 0.9 29.6
2014-Nov-16 20:00N 13°26' E 148°42'0 0.0 29.4
2014-Nov-16 19:00N 13°26' E 148°42'1 0.7 29.4
2014-Nov-16 17:00N 13°27' E 148°43'0 0.0 29.4
2014-Nov-16 16:00N 13°27' E 148°43'0 0.0 29.4
2014-Nov-16 15:00N 13°27' E 148°43'4 1.2 29.4
2014-Nov-16 12:00N 13°26' E 148°47'1 0.6 29.4
2014-Nov-16 11:00N 13°26' E 148°47'0 0.0 29.5
2014-Nov-16 10:00N 13°26' E 148°47'2 0.9 29.5
2014-Nov-16 08:00N 13°26' E 148°49'0 0.0 29.5
2014-Nov-16 07:00N 13°26' E 148°49'1 0.8 29.5
2014-Nov-16 06:00N 13°26' E 148°50'1 0.6 29.5
2014-Nov-16 05:00N 13°26' E 148°50'0 0.1 29.5
2014-Nov-16 04:00N 13°26' E 148°50'0 0.1 29.5
2014-Nov-16 03:00N 13°26' E 148°50'0 0.1 29.5
2014-Nov-16 02:00N 13°26' E 148°50'2 1.2 29.5
2014-Nov-16 00:00N 13°26' E 148°53'1 0.2 29.4
2014-Nov-15 21:00N 13°25' E 148°53'1 0.7 29.4
2014-Nov-15 19:00N 13°25' E 148°54'1 0.6 29.4
2014-Nov-15 18:00N 13°25' E 148°55'1 1.3 29.4
2014-Nov-15 17:00N 13°23' E 148°55'0 0.0 29.4
2014-Nov-15 16:00N 13°23' E 148°55'0 0.0 29.4
2014-Nov-15 15:00N 13°23' E 148°55'4 1.4 29.4
2014-Nov-15 12:00N 13°23' E 148°59'1 0.6 29.5
2014-Nov-15 11:00N 13°23' E 149°00'1 1.2 29.5
2014-Nov-15 10:00N 13°23' E 149°01'4 1.2 29.5
2014-Nov-15 07:00N 13°22' E 149°05'0 0.0 29.6
2014-Nov-15 06:00N 13°22' E 149°05'0 0.0 29.6
2014-Nov-15 05:00N 13°22' E 149°05'1 0.4 29.6
2014-Nov-15 03:00N 13°23' E 149°05'0 0.3 29.5
2014-Nov-15 02:00N 13°23' E 149°06'3 1.2 29.5
2014-Nov-14 23:00N 13°23' E 149°09'0 0.1 29.4
2014-Nov-14 22:00N 13°23' E 149°09'3 1.3 29.4
2014-Nov-14 20:00N 13°24' E 149°11'0 0.0 29.4
2014-Nov-14 19:00N 13°24' E 149°11'0 0.0 29.4
2014-Nov-14 18:00N 13°24' E 149°11'1 0.4 29.4
2014-Nov-14 16:00N 13°25' E 149°12'0 0.2 29.4
2014-Nov-14 15:00N 13°25' E 149°12'2 0.5 29.5
2014-Nov-14 12:00N 13°25' E 149°14'1 0.3 29.5
2014-Nov-14 10:00N 13°25' E 149°14'1 0.6 29.5
2014-Nov-14 09:00N 13°25' E 149°14'1 0.1 29.5
2014-Nov-14 05:00N 13°25' E 149°15'1 0.3 29.6
2014-Nov-14 03:00N 13°25' E 149°14'3 0.7 29.5
2014-Nov-13 23:00N 13°24' E 149°17'1 0.3 29.4
2014-Nov-13 20:00N 13°23' E 149°16'2 1.1 29.4
2014-Nov-13 18:00N 13°22' E 149°18'1 0.4 29.4
2014-Nov-13 16:00N 13°22' E 149°19'1 0.3 29.4
2014-Nov-13 14:00N 13°22' E 149°19'2 1.1 29.4
2014-Nov-13 12:00N 13°20' E 149°21'1 0.8 29.5
2014-Nov-13 11:00N 13°20' E 149°22'2 2.3 29.5
2014-Nov-13 10:00N 13°20' E 149°24'0 0.0 29.5
2014-Nov-13 09:00N 13°20' E 149°24'1 0.3 29.5
2014-Nov-13 07:00N 13°20' E 149°25'   29.5

Dump ship's entire track history